sensor_id;sensor_type;location;lat;lon;timestamp;temperature;humidity
56240;DHT22;42154;51.992;5.896;2024-03-22T00:01:48;11.60;99.90
56240;DHT22;42154;51.992;5.896;2024-03-22T00:04:14;11.60;99.90
56240;DHT22;42154;51.992;5.896;2024-03-22T00:06:45;11.60;99.90
56240;DHT22;42154;51.992;5.896;2024-03-22T00:09:11;11.60;99.90
56240;DHT22;42154;51.992;5.896;2024-03-22T00:11:38;11.60;99.90
56240;DHT22;42154;51.992;5.896;2024-03-22T00:14:04;11.60;99.90
56240;DHT22;42154;51.992;5.896;2024-03-22T00:16:30;11.60;99.90
56240;DHT22;42154;51.992;5.896;2024-03-22T00:18:55;11.70;99.90
56240;DHT22;42154;51.992;5.896;2024-03-22T00:21:22;11.70;99.90
56240;DHT22;42154;51.992;5.896;2024-03-22T00:23:48;11.70;99.90
56240;DHT22;42154;51.992;5.896;2024-03-22T00:26:14;11.70;99.90
56240;DHT22;42154;51.992;5.896;2024-03-22T00:28:40;11.70;99.90
56240;DHT22;42154;51.992;5.896;2024-03-22T00:31:06;11.70;99.90
56240;DHT22;42154;51.992;5.896;2024-03-22T00:33:31;11.70;99.90
56240;DHT22;42154;51.992;5.896;2024-03-22T00:35:57;11.80;99.90
56240;DHT22;42154;51.992;5.896;2024-03-22T00:38:23;11.80;99.90
56240;DHT22;42154;51.992;5.896;2024-03-22T00:40:49;11.80;99.90
56240;DHT22;42154;51.992;5.896;2024-03-22T00:43:15;11.90;99.90
56240;DHT22;42154;51.992;5.896;2024-03-22T00:45:41;11.90;99.90
56240;DHT22;42154;51.992;5.896;2024-03-22T00:48:07;11.90;99.90
56240;DHT22;42154;51.992;5.896;2024-03-22T00:50:33;11.90;99.90
56240;DHT22;42154;51.992;5.896;2024-03-22T00:52:58;11.90;99.90
56240;DHT22;42154;51.992;5.896;2024-03-22T00:55:24;11.80;99.90
56240;DHT22;42154;51.992;5.896;2024-03-22T00:57:51;11.90;99.90
56240;DHT22;42154;51.992;5.896;2024-03-22T01:00:17;11.80;99.90
56240;DHT22;42154;51.992;5.896;2024-03-22T01:02:43;11.80;99.90
56240;DHT22;42154;51.992;5.896;2024-03-22T01:05:09;11.80;99.90
56240;DHT22;42154;51.992;5.896;2024-03-22T01:07:36;11.80;99.90
56240;DHT22;42154;51.992;5.896;2024-03-22T01:10:05;11.90;99.90
56240;DHT22;42154;51.992;5.896;2024-03-22T01:12:31;11.90;99.90
56240;DHT22;42154;51.992;5.896;2024-03-22T01:14:57;11.90;99.90
56240;DHT22;42154;51.992;5.896;2024-03-22T01:17:23;11.90;99.90
56240;DHT22;42154;51.992;5.896;2024-03-22T01:19:49;11.90;99.90
56240;DHT22;42154;51.992;5.896;2024-03-22T01:22:17;11.90;99.90
56240;DHT22;42154;51.992;5.896;2024-03-22T01:24:43;11.90;99.90
56240;DHT22;42154;51.992;5.896;2024-03-22T01:27:09;11.90;99.90
56240;DHT22;42154;51.992;5.896;2024-03-22T01:29:34;11.80;99.90
56240;DHT22;42154;51.992;5.896;2024-03-22T01:32:02;11.80;99.90
56240;DHT22;42154;51.992;5.896;2024-03-22T01:34:28;11.70;99.90
56240;DHT22;42154;51.992;5.896;2024-03-22T01:47:35;11.60;99.90
56240;DHT22;42154;51.992;5.896;2024-03-22T01:50:01;11.60;99.90
56240;DHT22;42154;51.992;5.896;2024-03-22T01:52:27;11.60;99.90
56240;DHT22;42154;51.992;5.896;2024-03-22T01:54:53;11.60;99.90
56240;DHT22;42154;51.992;5.896;2024-03-22T01:57:19;11.60;99.90
56240;DHT22;42154;51.992;5.896;2024-03-22T01:59:46;11.60;99.90
56240;DHT22;42154;51.992;5.896;2024-03-22T02:02:13;11.60;99.90
56240;DHT22;42154;51.992;5.896;2024-03-22T02:04:39;11.60;99.90
56240;DHT22;42154;51.992;5.896;2024-03-22T02:07:05;11.60;99.90
56240;DHT22;42154;51.992;5.896;2024-03-22T02:09:31;11.60;99.90
56240;DHT22;42154;51.992;5.896;2024-03-22T02:11:56;11.60;99.90
56240;DHT22;42154;51.992;5.896;2024-03-22T02:14:22;11.60;99.90
56240;DHT22;42154;51.992;5.896;2024-03-22T02:16:48;11.60;99.90
56240;DHT22;42154;51.992;5.896;2024-03-22T02:19:13;11.60;99.90
56240;DHT22;42154;51.992;5.896;2024-03-22T02:21:39;11.60;99.90
56240;DHT22;42154;51.992;5.896;2024-03-22T02:24:05;11.60;99.90
56240;DHT22;42154;51.992;5.896;2024-03-22T02:26:31;11.60;99.90
56240;DHT22;42154;51.992;5.896;2024-03-22T02:28:56;11.70;99.90
56240;DHT22;42154;51.992;5.896;2024-03-22T02:31:22;11.70;99.90
56240;DHT22;42154;51.992;5.896;2024-03-22T02:33:48;11.70;99.90
56240;DHT22;42154;51.992;5.896;2024-03-22T02:36:13;11.70;99.90
56240;DHT22;42154;51.992;5.896;2024-03-22T02:38:39;11.70;99.90
56240;DHT22;42154;51.992;5.896;2024-03-22T02:41:05;11.70;99.90
56240;DHT22;42154;51.992;5.896;2024-03-22T02:43:30;11.70;99.90
56240;DHT22;42154;51.992;5.896;2024-03-22T02:45:56;11.60;99.90
56240;DHT22;42154;51.992;5.896;2024-03-22T02:48:22;11.70;99.90
56240;DHT22;42154;51.992;5.896;2024-03-22T02:50:47;11.70;99.90
56240;DHT22;42154;51.992;5.896;2024-03-22T02:53:13;11.70;99.90
56240;DHT22;42154;51.992;5.896;2024-03-22T02:55:39;11.70;99.90
56240;DHT22;42154;51.992;5.896;2024-03-22T02:58:06;11.70;99.90
56240;DHT22;42154;51.992;5.896;2024-03-22T03:00:39;11.70;99.90
56240;DHT22;42154;51.992;5.896;2024-03-22T03:03:05;11.70;99.90
56240;DHT22;42154;51.992;5.896;2024-03-22T03:05:31;11.70;99.90
56240;DHT22;42154;51.992;5.896;2024-03-22T03:07:57;11.70;99.90
56240;DHT22;42154;51.992;5.896;2024-03-22T03:10:22;11.70;99.90
56240;DHT22;42154;51.992;5.896;2024-03-22T03:12:48;11.70;99.90
56240;DHT22;42154;51.992;5.896;2024-03-22T03:15:15;11.70;99.90
56240;DHT22;42154;51.992;5.896;2024-03-22T03:17:41;11.70;99.90
56240;DHT22;42154;51.992;5.896;2024-03-22T03:20:07;11.70;99.90
56240;DHT22;42154;51.992;5.896;2024-03-22T03:22:35;11.70;99.90
56240;DHT22;42154;51.992;5.896;2024-03-22T03:25:03;11.70;99.90
56240;DHT22;42154;51.992;5.896;2024-03-22T03:27:30;11.70;99.90
56240;DHT22;42154;51.992;5.896;2024-03-22T03:29:55;11.70;99.90
56240;DHT22;42154;51.992;5.896;2024-03-22T03:32:21;11.70;99.90
56240;DHT22;42154;51.992;5.896;2024-03-22T03:34:47;11.70;99.90
56240;DHT22;42154;51.992;5.896;2024-03-22T03:37:13;11.70;99.90
56240;DHT22;42154;51.992;5.896;2024-03-22T03:39:39;11.70;99.90
56240;DHT22;42154;51.992;5.896;2024-03-22T03:42:05;11.70;99.90
56240;DHT22;42154;51.992;5.896;2024-03-22T03:44:31;11.70;99.90
56240;DHT22;42154;51.992;5.896;2024-03-22T03:46:56;11.80;99.90
56240;DHT22;42154;51.992;5.896;2024-03-22T03:49:22;11.80;99.90
56240;DHT22;42154;51.992;5.896;2024-03-22T03:51:48;11.80;99.90
56240;DHT22;42154;51.992;5.896;2024-03-22T03:54:14;11.80;99.90
56240;DHT22;42154;51.992;5.896;2024-03-22T03:56:39;11.80;99.90
56240;DHT22;42154;51.992;5.896;2024-03-22T03:59:05;11.80;99.90
56240;DHT22;42154;51.992;5.896;2024-03-22T04:01:31;11.70;99.90
56240;DHT22;42154;51.992;5.896;2024-03-22T04:03:56;11.70;99.90
56240;DHT22;42154;51.992;5.896;2024-03-22T04:06:22;11.80;99.90
56240;DHT22;42154;51.992;5.896;2024-03-22T04:08:48;11.80;99.90
56240;DHT22;42154;51.992;5.896;2024-03-22T04:11:13;11.80;99.90
56240;DHT22;42154;51.992;5.896;2024-03-22T04:13:39;11.80;99.90
56240;DHT22;42154;51.992;5.896;2024-03-22T04:16:05;11.70;99.90
56240;DHT22;42154;51.992;5.896;2024-03-22T04:18:31;11.70;99.90
56240;DHT22;42154;51.992;5.896;2024-03-22T04:20:58;11.80;99.90
56240;DHT22;42154;51.992;5.896;2024-03-22T04:23:25;11.80;99.90
56240;DHT22;42154;51.992;5.896;2024-03-22T04:25:58;11.80;99.90
56240;DHT22;42154;51.992;5.896;2024-03-22T04:28:25;11.80;99.90
56240;DHT22;42154;51.992;5.896;2024-03-22T04:30:59;11.80;99.90
56240;DHT22;42154;51.992;5.896;2024-03-22T04:33:26;11.70;99.90
56240;DHT22;42154;51.992;5.896;2024-03-22T04:35:51;11.70;99.90
56240;DHT22;42154;51.992;5.896;2024-03-22T04:38:17;11.70;99.90
56240;DHT22;42154;51.992;5.896;2024-03-22T04:40:43;11.70;99.90
56240;DHT22;42154;51.992;5.896;2024-03-22T04:43:09;11.80;99.90
56240;DHT22;42154;51.992;5.896;2024-03-22T04:45:35;11.70;99.90
56240;DHT22;42154;51.992;5.896;2024-03-22T04:48:04;11.70;99.90
56240;DHT22;42154;51.992;5.896;2024-03-22T04:50:31;11.70;99.90
56240;DHT22;42154;51.992;5.896;2024-03-22T04:52:57;11.60;99.90
56240;DHT22;42154;51.992;5.896;2024-03-22T04:55:22;11.70;99.90
56240;DHT22;42154;51.992;5.896;2024-03-22T04:57:48;11.70;99.90
56240;DHT22;42154;51.992;5.896;2024-03-22T05:00:15;11.70;99.90
56240;DHT22;42154;51.992;5.896;2024-03-22T05:02:40;11.60;99.90
56240;DHT22;42154;51.992;5.896;2024-03-22T05:05:06;11.60;99.90
56240;DHT22;42154;51.992;5.896;2024-03-22T05:07:35;11.60;99.90
56240;DHT22;42154;51.992;5.896;2024-03-22T05:10:01;11.70;99.90
56240;DHT22;42154;51.992;5.896;2024-03-22T05:12:28;11.60;99.90
56240;DHT22;42154;51.992;5.896;2024-03-22T05:14:55;11.60;99.90
56240;DHT22;42154;51.992;5.896;2024-03-22T05:17:21;11.70;99.90
56240;DHT22;42154;51.992;5.896;2024-03-22T05:19:46;11.60;99.90
56240;DHT22;42154;51.992;5.896;2024-03-22T05:22:12;11.60;99.90
56240;DHT22;42154;51.992;5.896;2024-03-22T05:24:38;11.50;99.90
56240;DHT22;42154;51.992;5.896;2024-03-22T05:27:04;11.60;99.90
56240;DHT22;42154;51.992;5.896;2024-03-22T05:29:29;11.50;99.90
56240;DHT22;42154;51.992;5.896;2024-03-22T05:31:55;11.50;99.90
56240;DHT22;42154;51.992;5.896;2024-03-22T05:34:21;11.50;99.90
56240;DHT22;42154;51.992;5.896;2024-03-22T05:36:46;11.50;99.90
56240;DHT22;42154;51.992;5.896;2024-03-22T05:39:12;11.50;99.90
56240;DHT22;42154;51.992;5.896;2024-03-22T05:41:39;11.50;99.90
56240;DHT22;42154;51.992;5.896;2024-03-22T05:44:05;11.50;99.90
56240;DHT22;42154;51.992;5.896;2024-03-22T05:46:31;11.50;99.90
56240;DHT22;42154;51.992;5.896;2024-03-22T05:48:57;11.50;99.90
56240;DHT22;42154;51.992;5.896;2024-03-22T05:51:24;11.50;99.90
56240;DHT22;42154;51.992;5.896;2024-03-22T05:53:50;11.50;99.90
56240;DHT22;42154;51.992;5.896;2024-03-22T05:56:16;11.50;99.90
56240;DHT22;42154;51.992;5.896;2024-03-22T05:58:41;11.50;99.90
56240;DHT22;42154;51.992;5.896;2024-03-22T06:01:07;11.50;99.90
56240;DHT22;42154;51.992;5.896;2024-03-22T06:03:33;11.50;99.90
56240;DHT22;42154;51.992;5.896;2024-03-22T06:06:02;11.60;99.90
56240;DHT22;42154;51.992;5.896;2024-03-22T06:08:29;11.50;99.90
56240;DHT22;42154;51.992;5.896;2024-03-22T06:10:57;11.50;99.90
56240;DHT22;42154;51.992;5.896;2024-03-22T06:13:22;11.50;99.90
56240;DHT22;42154;51.992;5.896;2024-03-22T06:15:49;11.50;99.90
56240;DHT22;42154;51.992;5.896;2024-03-22T06:18:15;11.50;99.90
56240;DHT22;42154;51.992;5.896;2024-03-22T06:20:41;11.50;99.90
56240;DHT22;42154;51.992;5.896;2024-03-22T06:23:07;11.50;99.90
56240;DHT22;42154;51.992;5.896;2024-03-22T06:25:34;11.50;99.90
56240;DHT22;42154;51.992;5.896;2024-03-22T06:27:59;11.50;99.90
56240;DHT22;42154;51.992;5.896;2024-03-22T06:30:25;11.50;99.90
56240;DHT22;42154;51.992;5.896;2024-03-22T06:32:52;11.60;99.90
56240;DHT22;42154;51.992;5.896;2024-03-22T06:35:18;11.60;99.90
56240;DHT22;42154;51.992;5.896;2024-03-22T06:37:43;11.60;99.90
56240;DHT22;42154;51.992;5.896;2024-03-22T06:40:09;11.60;99.90
56240;DHT22;42154;51.992;5.896;2024-03-22T06:42:35;11.60;99.90
56240;DHT22;42154;51.992;5.896;2024-03-22T06:45:02;11.60;99.90
56240;DHT22;42154;51.992;5.896;2024-03-22T06:47:28;11.60;99.90
56240;DHT22;42154;51.992;5.896;2024-03-22T06:49:54;11.60;99.90
56240;DHT22;42154;51.992;5.896;2024-03-22T06:52:20;11.60;99.90
56240;DHT22;42154;51.992;5.896;2024-03-22T06:54:46;11.70;99.90
56240;DHT22;42154;51.992;5.896;2024-03-22T06:57:12;11.70;99.90
56240;DHT22;42154;51.992;5.896;2024-03-22T06:59:37;11.70;99.90
56240;DHT22;42154;51.992;5.896;2024-03-22T07:02:03;11.80;99.90
56240;DHT22;42154;51.992;5.896;2024-03-22T07:04:29;11.80;99.90
56240;DHT22;42154;51.992;5.896;2024-03-22T07:06:55;11.80;99.90
56240;DHT22;42154;51.992;5.896;2024-03-22T07:09:21;11.80;99.90
56240;DHT22;42154;51.992;5.896;2024-03-22T07:11:47;11.80;99.90
56240;DHT22;42154;51.992;5.896;2024-03-22T07:14:12;11.80;99.90
56240;DHT22;42154;51.992;5.896;2024-03-22T07:16:38;11.80;99.90
56240;DHT22;42154;51.992;5.896;2024-03-22T07:19:04;11.80;99.90
56240;DHT22;42154;51.992;5.896;2024-03-22T07:21:30;11.80;99.90
56240;DHT22;42154;51.992;5.896;2024-03-22T07:23:56;11.80;99.90
56240;DHT22;42154;51.992;5.896;2024-03-22T07:26:22;11.90;99.90
56240;DHT22;42154;51.992;5.896;2024-03-22T07:28:47;11.90;99.90
56240;DHT22;42154;51.992;5.896;2024-03-22T07:31:13;11.90;99.90
56240;DHT22;42154;51.992;5.896;2024-03-22T07:33:39;12.00;99.90
56240;DHT22;42154;51.992;5.896;2024-03-22T07:36:06;12.10;99.90
56240;DHT22;42154;51.992;5.896;2024-03-22T07:38:32;12.10;99.90
56240;DHT22;42154;51.992;5.896;2024-03-22T07:40:57;12.20;99.90
56240;DHT22;42154;51.992;5.896;2024-03-22T07:43:23;12.20;99.90
56240;DHT22;42154;51.992;5.896;2024-03-22T07:45:49;12.20;99.90
56240;DHT22;42154;51.992;5.896;2024-03-22T07:48:15;12.20;99.90
56240;DHT22;42154;51.992;5.896;2024-03-22T07:50:41;12.20;99.90
56240;DHT22;42154;51.992;5.896;2024-03-22T07:53:07;12.20;99.90
56240;DHT22;42154;51.992;5.896;2024-03-22T07:55:33;12.10;99.90
56240;DHT22;42154;51.992;5.896;2024-03-22T07:57:59;12.20;99.90
56240;DHT22;42154;51.992;5.896;2024-03-22T08:00:25;12.20;99.90
56240;DHT22;42154;51.992;5.896;2024-03-22T08:02:54;12.20;99.90
56240;DHT22;42154;51.992;5.896;2024-03-22T08:05:20;12.20;99.90
56240;DHT22;42154;51.992;5.896;2024-03-22T08:07:46;12.20;99.90
56240;DHT22;42154;51.992;5.896;2024-03-22T08:10:11;12.20;99.90
56240;DHT22;42154;51.992;5.896;2024-03-22T08:12:37;12.20;99.90
56240;DHT22;42154;51.992;5.896;2024-03-22T08:15:03;12.20;99.90
56240;DHT22;42154;51.992;5.896;2024-03-22T08:17:29;12.20;99.90
56240;DHT22;42154;51.992;5.896;2024-03-22T08:19:55;12.20;99.90
56240;DHT22;42154;51.992;5.896;2024-03-22T08:22:20;12.20;99.90
56240;DHT22;42154;51.992;5.896;2024-03-22T08:24:46;12.20;99.90
56240;DHT22;42154;51.992;5.896;2024-03-22T08:27:12;12.20;99.90
56240;DHT22;42154;51.992;5.896;2024-03-22T08:29:39;12.20;99.90
56240;DHT22;42154;51.992;5.896;2024-03-22T08:32:05;12.20;99.90
56240;DHT22;42154;51.992;5.896;2024-03-22T08:34:31;12.20;99.90
56240;DHT22;42154;51.992;5.896;2024-03-22T08:37:00;12.20;99.90
56240;DHT22;42154;51.992;5.896;2024-03-22T08:39:25;12.20;99.90
56240;DHT22;42154;51.992;5.896;2024-03-22T08:41:51;12.20;99.90
56240;DHT22;42154;51.992;5.896;2024-03-22T08:44:17;12.20;99.90
56240;DHT22;42154;51.992;5.896;2024-03-22T08:46:43;12.20;99.90
56240;DHT22;42154;51.992;5.896;2024-03-22T08:49:09;12.20;99.90
56240;DHT22;42154;51.992;5.896;2024-03-22T08:51:34;12.20;99.90
56240;DHT22;42154;51.992;5.896;2024-03-22T08:54:00;12.20;99.90
56240;DHT22;42154;51.992;5.896;2024-03-22T08:56:26;12.20;99.90
56240;DHT22;42154;51.992;5.896;2024-03-22T08:58:52;12.20;99.90
56240;DHT22;42154;51.992;5.896;2024-03-22T09:01:18;12.20;99.90
56240;DHT22;42154;51.992;5.896;2024-03-22T09:03:43;12.10;99.90
56240;DHT22;42154;51.992;5.896;2024-03-22T09:06:13;12.10;99.90
56240;DHT22;42154;51.992;5.896;2024-03-22T09:08:38;12.00;99.90
56240;DHT22;42154;51.992;5.896;2024-03-22T09:11:04;12.00;99.90
56240;DHT22;42154;51.992;5.896;2024-03-22T09:13:30;12.00;99.90
56240;DHT22;42154;51.992;5.896;2024-03-22T09:15:57;11.90;99.90
56240;DHT22;42154;51.992;5.896;2024-03-22T09:18:23;11.90;99.90
56240;DHT22;42154;51.992;5.896;2024-03-22T09:20:49;11.90;99.90
56240;DHT22;42154;51.992;5.896;2024-03-22T09:23:15;11.90;99.90
56240;DHT22;42154;51.992;5.896;2024-03-22T09:25:40;11.90;99.90
56240;DHT22;42154;51.992;5.896;2024-03-22T09:28:06;11.90;99.90
56240;DHT22;42154;51.992;5.896;2024-03-22T09:30:32;11.90;99.90
56240;DHT22;42154;51.992;5.896;2024-03-22T09:32:58;11.90;99.90
56240;DHT22;42154;51.992;5.896;2024-03-22T09:35:23;11.90;99.90
56240;DHT22;42154;51.992;5.896;2024-03-22T09:37:49;11.90;99.90
56240;DHT22;42154;51.992;5.896;2024-03-22T09:40:15;11.90;99.90
56240;DHT22;42154;51.992;5.896;2024-03-22T09:42:41;11.90;99.90
56240;DHT22;42154;51.992;5.896;2024-03-22T09:45:11;11.90;99.90
56240;DHT22;42154;51.992;5.896;2024-03-22T09:47:37;11.90;99.90
56240;DHT22;42154;51.992;5.896;2024-03-22T09:50:06;11.90;99.90
56240;DHT22;42154;51.992;5.896;2024-03-22T09:52:33;12.00;99.90
56240;DHT22;42154;51.992;5.896;2024-03-22T09:54:59;12.00;99.90
56240;DHT22;42154;51.992;5.896;2024-03-22T09:57:25;11.90;99.90
56240;DHT22;42154;51.992;5.896;2024-03-22T09:59:51;12.00;99.90
56240;DHT22;42154;51.992;5.896;2024-03-22T10:02:18;12.00;99.90
56240;DHT22;42154;51.992;5.896;2024-03-22T10:04:45;11.90;99.90
56240;DHT22;42154;51.992;5.896;2024-03-22T10:07:10;11.90;99.90
56240;DHT22;42154;51.992;5.896;2024-03-22T10:09:37;11.90;99.90
56240;DHT22;42154;51.992;5.896;2024-03-22T10:12:03;12.00;99.90
56240;DHT22;42154;51.992;5.896;2024-03-22T10:14:29;12.00;99.90
56240;DHT22;42154;51.992;5.896;2024-03-22T10:16:56;12.00;99.90
56240;DHT22;42154;51.992;5.896;2024-03-22T10:19:23;12.10;99.90
56240;DHT22;42154;51.992;5.896;2024-03-22T10:22:04;12.10;99.90
56240;DHT22;42154;51.992;5.896;2024-03-22T10:24:33;12.10;99.90
56240;DHT22;42154;51.992;5.896;2024-03-22T10:26:59;12.10;99.90
56240;DHT22;42154;51.992;5.896;2024-03-22T10:29:25;12.20;99.90
56240;DHT22;42154;51.992;5.896;2024-03-22T10:31:53;12.10;99.90
56240;DHT22;42154;51.992;5.896;2024-03-22T10:34:21;12.00;99.90
56240;DHT22;42154;51.992;5.896;2024-03-22T10:36:48;12.00;99.90
56240;DHT22;42154;51.992;5.896;2024-03-22T10:39:16;12.00;99.90
56240;DHT22;42154;51.992;5.896;2024-03-22T10:41:45;12.00;99.90
56240;DHT22;42154;51.992;5.896;2024-03-22T10:44:12;12.00;99.90
56240;DHT22;42154;51.992;5.896;2024-03-22T10:46:44;12.00;99.90
56240;DHT22;42154;51.992;5.896;2024-03-22T10:49:16;12.00;99.90
56240;DHT22;42154;51.992;5.896;2024-03-22T10:51:51;12.00;99.90
56240;DHT22;42154;51.992;5.896;2024-03-22T10:54:22;12.00;99.90
56240;DHT22;42154;51.992;5.896;2024-03-22T10:56:52;12.00;99.90
56240;DHT22;42154;51.992;5.896;2024-03-22T10:59:20;12.00;99.90
56240;DHT22;42154;51.992;5.896;2024-03-22T11:01:47;12.00;99.90
56240;DHT22;42154;51.992;5.896;2024-03-22T11:04:16;11.90;99.90
56240;DHT22;42154;51.992;5.896;2024-03-22T11:06:47;11.90;99.90
56240;DHT22;42154;51.992;5.896;2024-03-22T11:09:21;12.00;99.90
56240;DHT22;42154;51.992;5.896;2024-03-22T11:11:47;11.90;99.90
56240;DHT22;42154;51.992;5.896;2024-03-22T11:14:13;12.00;99.90
56240;DHT22;42154;51.992;5.896;2024-03-22T11:16:38;11.90;99.90
56240;DHT22;42154;51.992;5.896;2024-03-22T11:19:07;11.90;99.90
56240;DHT22;42154;51.992;5.896;2024-03-22T11:21:33;11.90;99.90
56240;DHT22;42154;51.992;5.896;2024-03-22T11:24:02;11.90;99.90
56240;DHT22;42154;51.992;5.896;2024-03-22T11:26:28;11.90;99.90
56240;DHT22;42154;51.992;5.896;2024-03-22T11:28:53;11.90;99.90
56240;DHT22;42154;51.992;5.896;2024-03-22T11:31:19;11.90;99.90
56240;DHT22;42154;51.992;5.896;2024-03-22T11:33:47;11.90;99.90
56240;DHT22;42154;51.992;5.896;2024-03-22T11:36:13;11.90;99.90
56240;DHT22;42154;51.992;5.896;2024-03-22T11:38:39;11.90;99.90
56240;DHT22;42154;51.992;5.896;2024-03-22T11:41:06;11.90;99.90
56240;DHT22;42154;51.992;5.896;2024-03-22T11:43:32;11.90;99.90
56240;DHT22;42154;51.992;5.896;2024-03-22T11:45:58;12.00;99.90
56240;DHT22;42154;51.992;5.896;2024-03-22T11:48:26;12.00;99.90
56240;DHT22;42154;51.992;5.896;2024-03-22T11:50:52;11.90;99.90
56240;DHT22;42154;51.992;5.896;2024-03-22T11:53:18;12.00;99.90
56240;DHT22;42154;51.992;5.896;2024-03-22T11:55:43;12.00;99.90
56240;DHT22;42154;51.992;5.896;2024-03-22T11:58:10;12.00;99.90
56240;DHT22;42154;51.992;5.896;2024-03-22T12:00:36;12.00;99.90
56240;DHT22;42154;51.992;5.896;2024-03-22T12:03:04;12.00;99.90
56240;DHT22;42154;51.992;5.896;2024-03-22T12:05:31;12.00;99.90
56240;DHT22;42154;51.992;5.896;2024-03-22T12:07:57;12.00;99.90
56240;DHT22;42154;51.992;5.896;2024-03-22T12:10:23;12.00;99.90
56240;DHT22;42154;51.992;5.896;2024-03-22T12:12:49;12.00;99.90
56240;DHT22;42154;51.992;5.896;2024-03-22T12:15:15;12.00;99.90
56240;DHT22;42154;51.992;5.896;2024-03-22T12:17:40;12.00;99.90
56240;DHT22;42154;51.992;5.896;2024-03-22T12:20:09;12.00;99.90
56240;DHT22;42154;51.992;5.896;2024-03-22T12:22:35;12.00;99.90
56240;DHT22;42154;51.992;5.896;2024-03-22T12:25:01;12.10;99.90
56240;DHT22;42154;51.992;5.896;2024-03-22T12:27:27;12.10;99.90
56240;DHT22;42154;51.992;5.896;2024-03-22T12:29:53;12.10;99.90
56240;DHT22;42154;51.992;5.896;2024-03-22T12:32:18;12.10;99.90
56240;DHT22;42154;51.992;5.896;2024-03-22T12:34:44;12.20;99.90
56240;DHT22;42154;51.992;5.896;2024-03-22T12:37:10;12.30;99.90
56240;DHT22;42154;51.992;5.896;2024-03-22T12:39:36;12.20;99.90
56240;DHT22;42154;51.992;5.896;2024-03-22T12:42:02;12.30;99.90
56240;DHT22;42154;51.992;5.896;2024-03-22T12:44:28;12.30;99.90
56240;DHT22;42154;51.992;5.896;2024-03-22T12:46:54;12.30;99.90
56240;DHT22;42154;51.992;5.896;2024-03-22T12:49:21;12.20;99.90
56240;DHT22;42154;51.992;5.896;2024-03-22T12:51:47;12.20;99.90
56240;DHT22;42154;51.992;5.896;2024-03-22T12:54:13;12.30;99.90
56240;DHT22;42154;51.992;5.896;2024-03-22T12:56:40;12.30;99.90
56240;DHT22;42154;51.992;5.896;2024-03-22T12:59:06;12.20;99.90
56240;DHT22;42154;51.992;5.896;2024-03-22T13:01:33;12.20;99.90
56240;DHT22;42154;51.992;5.896;2024-03-22T13:03:59;12.30;99.90
56240;DHT22;42154;51.992;5.896;2024-03-22T13:06:25;12.30;99.90
56240;DHT22;42154;51.992;5.896;2024-03-22T13:08:50;12.30;99.90
56240;DHT22;42154;51.992;5.896;2024-03-22T13:11:16;12.30;99.90
56240;DHT22;42154;51.992;5.896;2024-03-22T13:13:42;12.30;99.90
56240;DHT22;42154;51.992;5.896;2024-03-22T13:16:09;12.20;99.90
56240;DHT22;42154;51.992;5.896;2024-03-22T13:18:37;12.30;99.90
56240;DHT22;42154;51.992;5.896;2024-03-22T13:21:03;12.20;99.90
56240;DHT22;42154;51.992;5.896;2024-03-22T13:23:30;12.20;99.90
56240;DHT22;42154;51.992;5.896;2024-03-22T13:25:56;12.20;99.90
56240;DHT22;42154;51.992;5.896;2024-03-22T13:28:24;12.30;99.90
56240;DHT22;42154;51.992;5.896;2024-03-22T13:31:00;12.30;99.90
56240;DHT22;42154;51.992;5.896;2024-03-22T13:33:26;12.30;99.90
56240;DHT22;42154;51.992;5.896;2024-03-22T13:35:51;12.30;99.90
56240;DHT22;42154;51.992;5.896;2024-03-22T13:38:17;12.20;99.90
56240;DHT22;42154;51.992;5.896;2024-03-22T13:40:43;12.20;99.90
56240;DHT22;42154;51.992;5.896;2024-03-22T13:43:10;12.20;99.90
56240;DHT22;42154;51.992;5.896;2024-03-22T13:45:41;12.20;99.90
56240;DHT22;42154;51.992;5.896;2024-03-22T13:48:11;12.20;99.90
56240;DHT22;42154;51.992;5.896;2024-03-22T13:50:38;12.20;99.90
56240;DHT22;42154;51.992;5.896;2024-03-22T13:53:03;12.10;99.90
56240;DHT22;42154;51.992;5.896;2024-03-22T13:55:29;12.00;99.90
56240;DHT22;42154;51.992;5.896;2024-03-22T13:57:55;12.00;99.90
56240;DHT22;42154;51.992;5.896;2024-03-22T14:00:20;11.90;99.90
56240;DHT22;42154;51.992;5.896;2024-03-22T14:02:47;11.80;99.90
56240;DHT22;42154;51.992;5.896;2024-03-22T14:05:17;11.80;99.90
56240;DHT22;42154;51.992;5.896;2024-03-22T14:07:43;11.80;99.90
56240;DHT22;42154;51.992;5.896;2024-03-22T14:10:09;11.80;99.90
56240;DHT22;42154;51.992;5.896;2024-03-22T14:12:35;11.80;99.90
56240;DHT22;42154;51.992;5.896;2024-03-22T14:15:01;11.80;99.90
56240;DHT22;42154;51.992;5.896;2024-03-22T14:17:27;11.80;99.90
56240;DHT22;42154;51.992;5.896;2024-03-22T14:19:52;11.80;99.90
56240;DHT22;42154;51.992;5.896;2024-03-22T14:22:18;11.80;99.90
56240;DHT22;42154;51.992;5.896;2024-03-22T14:24:44;11.80;99.90
56240;DHT22;42154;51.992;5.896;2024-03-22T14:27:10;11.80;99.90
56240;DHT22;42154;51.992;5.896;2024-03-22T14:29:36;11.80;99.90
56240;DHT22;42154;51.992;5.896;2024-03-22T14:32:02;11.80;99.90
56240;DHT22;42154;51.992;5.896;2024-03-22T14:34:28;11.90;99.90
56240;DHT22;42154;51.992;5.896;2024-03-22T14:36:53;12.00;99.90
56240;DHT22;42154;51.992;5.896;2024-03-22T14:39:19;12.00;99.90
56240;DHT22;42154;51.992;5.896;2024-03-22T14:41:45;12.10;99.90
56240;DHT22;42154;51.992;5.896;2024-03-22T14:44:11;12.00;99.90
56240;DHT22;42154;51.992;5.896;2024-03-22T14:46:36;12.00;99.90
56240;DHT22;42154;51.992;5.896;2024-03-22T14:49:02;12.00;99.90
56240;DHT22;42154;51.992;5.896;2024-03-22T14:51:28;11.90;99.90
56240;DHT22;42154;51.992;5.896;2024-03-22T14:53:54;11.80;99.90
56240;DHT22;42154;51.992;5.896;2024-03-22T14:56:20;11.80;99.90
56240;DHT22;42154;51.992;5.896;2024-03-22T14:58:46;11.80;99.90
56240;DHT22;42154;51.992;5.896;2024-03-22T15:01:12;11.80;99.90
56240;DHT22;42154;51.992;5.896;2024-03-22T15:03:38;11.80;99.90
56240;DHT22;42154;51.992;5.896;2024-03-22T15:06:04;11.80;99.90
56240;DHT22;42154;51.992;5.896;2024-03-22T15:08:30;11.80;99.90
56240;DHT22;42154;51.992;5.896;2024-03-22T15:10:55;11.90;99.90
56240;DHT22;42154;51.992;5.896;2024-03-22T15:13:21;11.80;99.90
56240;DHT22;42154;51.992;5.896;2024-03-22T15:18:20;11.80;99.90
56240;DHT22;42154;51.992;5.896;2024-03-22T15:20:49;11.80;99.90
56240;DHT22;42154;51.992;5.896;2024-03-22T15:23:15;11.90;99.90
56240;DHT22;42154;51.992;5.896;2024-03-22T15:25:42;11.80;99.90
56240;DHT22;42154;51.992;5.896;2024-03-22T15:28:09;11.80;99.90
56240;DHT22;42154;51.992;5.896;2024-03-22T15:30:35;11.80;99.90
56240;DHT22;42154;51.992;5.896;2024-03-22T15:33:01;11.90;99.90
56240;DHT22;42154;51.992;5.896;2024-03-22T15:35:29;11.90;99.90
56240;DHT22;42154;51.992;5.896;2024-03-22T15:37:56;11.90;99.90